sensor_id;sensor_type;location;lat;lon;timestamp;temperature;humidity
61386;DHT22;47256;18.904;-99.054;2022-07-23T00:00:21;29.60;83.70
61386;DHT22;47256;18.904;-99.054;2022-07-23T00:02:49;29.60;83.40
61386;DHT22;47256;18.904;-99.054;2022-07-23T00:05:16;29.40;82.50
61386;DHT22;47256;18.904;-99.054;2022-07-23T00:07:44;29.30;83.50
61386;DHT22;47256;18.904;-99.054;2022-07-23T00:10:11;29.30;82.60
61386;DHT22;47256;18.904;-99.054;2022-07-23T00:12:39;29.20;83.60
61386;DHT22;47256;18.904;-99.054;2022-07-23T00:15:07;29.30;83.00
61386;DHT22;47256;18.904;-99.054;2022-07-23T00:17:36;29.40;80.70
61386;DHT22;47256;18.904;-99.054;2022-07-23T00:20:04;29.40;81.60
61386;DHT22;47256;18.904;-99.054;2022-07-23T00:22:31;29.50;81.00
61386;DHT22;47256;18.904;-99.054;2022-07-23T00:24:59;29.50;79.60
61386;DHT22;47256;18.904;-99.054;2022-07-23T00:27:27;29.50;79.30
61386;DHT22;47256;18.904;-99.054;2022-07-23T00:29:54;29.60;80.00
61386;DHT22;47256;18.904;-99.054;2022-07-23T00:32:22;29.60;80.80
61386;DHT22;47256;18.904;-99.054;2022-07-23T00:34:49;29.60;81.90
61386;DHT22;47256;18.904;-99.054;2022-07-23T00:37:17;29.50;84.40
61386;DHT22;47256;18.904;-99.054;2022-07-23T00:39:45;29.40;85.30
61386;DHT22;47256;18.904;-99.054;2022-07-23T00:42:12;29.50;86.50
61386;DHT22;47256;18.904;-99.054;2022-07-23T00:44:40;29.50;88.00
61386;DHT22;47256;18.904;-99.054;2022-07-23T00:47:07;29.50;87.80
61386;DHT22;47256;18.904;-99.054;2022-07-23T00:49:35;29.50;87.10
61386;DHT22;47256;18.904;-99.054;2022-07-23T00:52:02;29.50;90.00
61386;DHT22;47256;18.904;-99.054;2022-07-23T00:54:30;29.40;88.90
61386;DHT22;47256;18.904;-99.054;2022-07-23T00:56:58;29.20;80.90
61386;DHT22;47256;18.904;-99.054;2022-07-23T00:59:26;29.10;77.80
61386;DHT22;47256;18.904;-99.054;2022-07-23T01:01:53;29.00;70.40
61386;DHT22;47256;18.904;-99.054;2022-07-23T01:04:21;28.90;66.10
61386;DHT22;47256;18.904;-99.054;2022-07-23T01:06:49;28.80;68.10
61386;DHT22;47256;18.904;-99.054;2022-07-23T01:09:16;28.80;68.90
61386;DHT22;47256;18.904;-99.054;2022-07-23T01:11:44;28.70;66.90
61386;DHT22;47256;18.904;-99.054;2022-07-23T01:14:14;28.70;66.60
61386;DHT22;47256;18.904;-99.054;2022-07-23T01:16:44;28.60;64.80
61386;DHT22;47256;18.904;-99.054;2022-07-23T01:19:12;28.40;65.40
61386;DHT22;47256;18.904;-99.054;2022-07-23T01:21:42;28.20;66.60
61386;DHT22;47256;18.904;-99.054;2022-07-23T01:24:11;28.20;67.50
61386;DHT22;47256;18.904;-99.054;2022-07-23T01:26:46;28.20;68.30
61386;DHT22;47256;18.904;-99.054;2022-07-23T01:29:14;28.30;67.10
61386;DHT22;47256;18.904;-99.054;2022-07-23T01:31:43;28.20;68.40
61386;DHT22;47256;18.904;-99.054;2022-07-23T01:34:11;28.20;68.10
61386;DHT22;47256;18.904;-99.054;2022-07-23T01:36:40;28.00;68.80
61386;DHT22;47256;18.904;-99.054;2022-07-23T01:39:09;28.00;69.40
61386;DHT22;47256;18.904;-99.054;2022-07-23T01:41:37;28.00;70.50
61386;DHT22;47256;18.904;-99.054;2022-07-23T01:44:05;28.00;71.20
61386;DHT22;47256;18.904;-99.054;2022-07-23T01:46:33;28.10;71.10
61386;DHT22;47256;18.904;-99.054;2022-07-23T01:49:01;28.10;71.50
61386;DHT22;47256;18.904;-99.054;2022-07-23T01:52:04;28.00;71.50
61386;DHT22;47256;18.904;-99.054;2022-07-23T01:54:45;28.00;71.30
61386;DHT22;47256;18.904;-99.054;2022-07-23T01:57:13;28.00;71.20
61386;DHT22;47256;18.904;-99.054;2022-07-23T01:59:40;28.00;71.70
61386;DHT22;47256;18.904;-99.054;2022-07-23T02:02:09;28.10;72.80
61386;DHT22;47256;18.904;-99.054;2022-07-23T02:04:37;28.00;74.50
61386;DHT22;47256;18.904;-99.054;2022-07-23T02:07:06;28.10;75.20
61386;DHT22;47256;18.904;-99.054;2022-07-23T02:09:34;28.10;74.60
61386;DHT22;47256;18.904;-99.054;2022-07-23T02:12:02;28.00;73.90
61386;DHT22;47256;18.904;-99.054;2022-07-23T02:14:30;28.00;73.70
61386;DHT22;47256;18.904;-99.054;2022-07-23T02:16:58;27.90;73.40
61386;DHT22;47256;18.904;-99.054;2022-07-23T02:19:26;27.90;73.10
61386;DHT22;47256;18.904;-99.054;2022-07-23T02:21:54;27.90;74.20
61386;DHT22;47256;18.904;-99.054;2022-07-23T02:24:21;27.80;73.90
61386;DHT22;47256;18.904;-99.054;2022-07-23T02:26:49;27.70;74.90
61386;DHT22;47256;18.904;-99.054;2022-07-23T02:29:16;27.70;75.70
61386;DHT22;47256;18.904;-99.054;2022-07-23T02:31:44;27.60;75.70
61386;DHT22;47256;18.904;-99.054;2022-07-23T02:34:13;27.60;76.70
61386;DHT22;47256;18.904;-99.054;2022-07-23T02:36:41;27.60;77.60
61386;DHT22;47256;18.904;-99.054;2022-07-23T02:39:09;27.60;78.90
61386;DHT22;47256;18.904;-99.054;2022-07-23T02:41:37;27.40;81.40
61386;DHT22;47256;18.904;-99.054;2022-07-23T02:44:05;27.20;82.10
61386;DHT22;47256;18.904;-99.054;2022-07-23T02:46:33;27.10;81.50
61386;DHT22;47256;18.904;-99.054;2022-07-23T02:49:01;27.00;81.30
61386;DHT22;47256;18.904;-99.054;2022-07-23T02:51:33;27.00;82.00
61386;DHT22;47256;18.904;-99.054;2022-07-23T02:54:04;27.10;82.00
61386;DHT22;47256;18.904;-99.054;2022-07-23T02:56:32;27.10;83.20
61386;DHT22;47256;18.904;-99.054;2022-07-23T02:59:03;27.00;84.10
61386;DHT22;47256;18.904;-99.054;2022-07-23T03:01:32;27.00;85.40
61386;DHT22;47256;18.904;-99.054;2022-07-23T03:03:59;27.00;84.10
61386;DHT22;47256;18.904;-99.054;2022-07-23T03:06:28;27.10;84.60
61386;DHT22;47256;18.904;-99.054;2022-07-23T03:08:56;27.10;84.10
61386;DHT22;47256;18.904;-99.054;2022-07-23T03:11:24;27.10;83.90
61386;DHT22;47256;18.904;-99.054;2022-07-23T03:13:51;27.10;83.80
61386;DHT22;47256;18.904;-99.054;2022-07-23T03:16:20;27.10;84.00
61386;DHT22;47256;18.904;-99.054;2022-07-23T03:18:50;27.10;84.60
61386;DHT22;47256;18.904;-99.054;2022-07-23T03:21:19;27.10;84.80
61386;DHT22;47256;18.904;-99.054;2022-07-23T03:23:47;27.10;84.90
61386;DHT22;47256;18.904;-99.054;2022-07-23T03:26:15;27.00;86.80
61386;DHT22;47256;18.904;-99.054;2022-07-23T03:28:43;26.80;86.90
61386;DHT22;47256;18.904;-99.054;2022-07-23T03:31:10;26.70;87.70
61386;DHT22;47256;18.904;-99.054;2022-07-23T03:33:39;26.70;86.40
61386;DHT22;47256;18.904;-99.054;2022-07-23T03:36:09;26.70;84.40
61386;DHT22;47256;18.904;-99.054;2022-07-23T03:38:41;26.60;85.00
61386;DHT22;47256;18.904;-99.054;2022-07-23T03:41:08;26.60;85.70
61386;DHT22;47256;18.904;-99.054;2022-07-23T03:43:36;26.50;85.80
61386;DHT22;47256;18.904;-99.054;2022-07-23T03:46:03;26.20;86.60
61386;DHT22;47256;18.904;-99.054;2022-07-23T03:48:32;26.00;87.30
61386;DHT22;47256;18.904;-99.054;2022-07-23T03:51:00;26.00;87.40
61386;DHT22;47256;18.904;-99.054;2022-07-23T03:53:27;26.00;88.00
61386;DHT22;47256;18.904;-99.054;2022-07-23T03:55:55;26.10;86.70
61386;DHT22;47256;18.904;-99.054;2022-07-23T03:58:24;26.20;84.80
61386;DHT22;47256;18.904;-99.054;2022-07-23T04:00:52;26.20;84.60
61386;DHT22;47256;18.904;-99.054;2022-07-23T04:03:20;26.20;83.90
61386;DHT22;47256;18.904;-99.054;2022-07-23T04:05:48;26.20;84.10
61386;DHT22;47256;18.904;-99.054;2022-07-23T04:08:16;26.20;83.80
61386;DHT22;47256;18.904;-99.054;2022-07-23T04:10:49;26.30;83.40
61386;DHT22;47256;18.904;-99.054;2022-07-23T04:13:17;26.40;83.80
61386;DHT22;47256;18.904;-99.054;2022-07-23T04:15:44;26.40;82.50
61386;DHT22;47256;18.904;-99.054;2022-07-23T04:18:12;26.40;80.70
61386;DHT22;47256;18.904;-99.054;2022-07-23T04:20:52;26.50;81.50
61386;DHT22;47256;18.904;-99.054;2022-07-23T04:23:20;26.50;81.40
61386;DHT22;47256;18.904;-99.054;2022-07-23T04:25:48;26.60;81.40
61386;DHT22;47256;18.904;-99.054;2022-07-23T04:28:15;26.70;81.40
61386;DHT22;47256;18.904;-99.054;2022-07-23T04:30:43;26.70;81.90
61386;DHT22;47256;18.904;-99.054;2022-07-23T04:33:13;26.60;82.40
61386;DHT22;47256;18.904;-99.054;2022-07-23T04:35:41;26.50;84.40
61386;DHT22;47256;18.904;-99.054;2022-07-23T04:38:19;26.50;85.50
61386;DHT22;47256;18.904;-99.054;2022-07-23T04:40:50;26.50;85.90
61386;DHT22;47256;18.904;-99.054;2022-07-23T04:43:19;26.50;86.80
61386;DHT22;47256;18.904;-99.054;2022-07-23T04:45:49;26.50;87.20
61386;DHT22;47256;18.904;-99.054;2022-07-23T04:48:17;26.50;86.10
61386;DHT22;47256;18.904;-99.054;2022-07-23T04:50:45;26.40;85.60
61386;DHT22;47256;18.904;-99.054;2022-07-23T04:53:20;26.20;85.90
61386;DHT22;47256;18.904;-99.054;2022-07-23T04:55:49;26.00;87.90
61386;DHT22;47256;18.904;-99.054;2022-07-23T04:58:17;26.10;90.10
61386;DHT22;47256;18.904;-99.054;2022-07-23T05:00:44;26.10;90.70
61386;DHT22;47256;18.904;-99.054;2022-07-23T05:03:12;26.10;91.30
61386;DHT22;47256;18.904;-99.054;2022-07-23T05:05:41;26.10;91.80
61386;DHT22;47256;18.904;-99.054;2022-07-23T05:08:13;26.00;92.10
61386;DHT22;47256;18.904;-99.054;2022-07-23T05:10:43;26.00;92.10
61386;DHT22;47256;18.904;-99.054;2022-07-23T05:13:10;25.90;91.70
61386;DHT22;47256;18.904;-99.054;2022-07-23T05:15:38;25.90;91.30
61386;DHT22;47256;18.904;-99.054;2022-07-23T05:18:06;25.90;91.00
61386;DHT22;47256;18.904;-99.054;2022-07-23T05:20:34;25.90;91.10
61386;DHT22;47256;18.904;-99.054;2022-07-23T05:23:01;25.90;91.60
61386;DHT22;47256;18.904;-99.054;2022-07-23T05:25:29;25.90;91.60
61386;DHT22;47256;18.904;-99.054;2022-07-23T05:27:57;25.90;91.70
61386;DHT22;47256;18.904;-99.054;2022-07-23T05:30:25;25.90;91.30
61386;DHT22;47256;18.904;-99.054;2022-07-23T05:32:58;25.90;91.00
61386;DHT22;47256;18.904;-99.054;2022-07-23T05:35:26;25.80;91.00
61386;DHT22;47256;18.904;-99.054;2022-07-23T05:38:08;25.80;90.00
61386;DHT22;47256;18.904;-99.054;2022-07-23T05:40:36;25.80;90.00
61386;DHT22;47256;18.904;-99.054;2022-07-23T05:43:04;25.80;89.30
61386;DHT22;47256;18.904;-99.054;2022-07-23T05:45:32;25.80;89.80
61386;DHT22;47256;18.904;-99.054;2022-07-23T05:47:59;25.80;89.60
61386;DHT22;47256;18.904;-99.054;2022-07-23T05:50:33;25.80;89.00
61386;DHT22;47256;18.904;-99.054;2022-07-23T05:53:08;25.80;89.00
61386;DHT22;47256;18.904;-99.054;2022-07-23T05:55:39;25.60;88.70
61386;DHT22;47256;18.904;-99.054;2022-07-23T05:58:07;25.60;89.70
61386;DHT22;47256;18.904;-99.054;2022-07-23T06:00:36;25.60;90.20
61386;DHT22;47256;18.904;-99.054;2022-07-23T06:03:05;25.60;90.40
61386;DHT22;47256;18.904;-99.054;2022-07-23T06:05:33;25.60;89.90
61386;DHT22;47256;18.904;-99.054;2022-07-23T06:08:01;25.60;90.40
61386;DHT22;47256;18.904;-99.054;2022-07-23T06:10:30;25.50;90.70
61386;DHT22;47256;18.904;-99.054;2022-07-23T06:12:57;25.30;90.70
61386;DHT22;47256;18.904;-99.054;2022-07-23T06:15:25;25.30;91.40
61386;DHT22;47256;18.904;-99.054;2022-07-23T06:17:54;25.00;91.50
61386;DHT22;47256;18.904;-99.054;2022-07-23T06:20:23;24.90;91.50
61386;DHT22;47256;18.904;-99.054;2022-07-23T06:22:51;24.80;91.80
61386;DHT22;47256;18.904;-99.054;2022-07-23T06:25:18;24.80;91.50
61386;DHT22;47256;18.904;-99.054;2022-07-23T06:27:47;24.80;91.50
61386;DHT22;47256;18.904;-99.054;2022-07-23T06:30:16;24.90;90.70
61386;DHT22;47256;18.904;-99.054;2022-07-23T06:32:44;25.00;91.30
61386;DHT22;47256;18.904;-99.054;2022-07-23T06:35:12;25.20;91.10
61386;DHT22;47256;18.904;-99.054;2022-07-23T06:37:39;25.20;91.00
61386;DHT22;47256;18.904;-99.054;2022-07-23T06:40:07;25.30;90.80
61386;DHT22;47256;18.904;-99.054;2022-07-23T06:42:37;25.40;90.80
61386;DHT22;47256;18.904;-99.054;2022-07-23T06:45:07;25.40;90.90
61386;DHT22;47256;18.904;-99.054;2022-07-23T06:47:36;25.20;91.70
61386;DHT22;47256;18.904;-99.054;2022-07-23T06:50:06;25.00;91.50
61386;DHT22;47256;18.904;-99.054;2022-07-23T06:52:33;24.90;91.60
61386;DHT22;47256;18.904;-99.054;2022-07-23T06:55:01;24.90;91.90
61386;DHT22;47256;18.904;-99.054;2022-07-23T06:57:29;25.00;92.10
61386;DHT22;47256;18.904;-99.054;2022-07-23T06:59:56;24.90;91.20
61386;DHT22;47256;18.904;-99.054;2022-07-23T07:02:25;25.00;91.40
61386;DHT22;47256;18.904;-99.054;2022-07-23T07:04:55;25.00;91.60
61386;DHT22;47256;18.904;-99.054;2022-07-23T07:07:23;25.00;91.20
61386;DHT22;47256;18.904;-99.054;2022-07-23T07:09:50;25.00;91.00
61386;DHT22;47256;18.904;-99.054;2022-07-23T07:12:18;24.90;91.20
61386;DHT22;47256;18.904;-99.054;2022-07-23T07:14:46;24.90;91.30
61386;DHT22;47256;18.904;-99.054;2022-07-23T07:17:14;24.90;91.40
61386;DHT22;47256;18.904;-99.054;2022-07-23T07:19:42;25.00;91.80
61386;DHT22;47256;18.904;-99.054;2022-07-23T07:22:09;25.00;91.80
61386;DHT22;47256;18.904;-99.054;2022-07-23T07:24:37;24.90;92.60
61386;DHT22;47256;18.904;-99.054;2022-07-23T07:27:05;24.90;92.50
61386;DHT22;47256;18.904;-99.054;2022-07-23T07:29:33;24.80;92.80
61386;DHT22;47256;18.904;-99.054;2022-07-23T07:32:00;24.70;92.90
61386;DHT22;47256;18.904;-99.054;2022-07-23T07:34:28;24.70;93.00
61386;DHT22;47256;18.904;-99.054;2022-07-23T07:36:55;24.80;92.70
61386;DHT22;47256;18.904;-99.054;2022-07-23T07:39:23;24.80;92.50
61386;DHT22;47256;18.904;-99.054;2022-07-23T07:41:50;24.90;93.00
61386;DHT22;47256;18.904;-99.054;2022-07-23T07:44:18;24.80;92.80
61386;DHT22;47256;18.904;-99.054;2022-07-23T07:46:45;24.80;93.00
61386;DHT22;47256;18.904;-99.054;2022-07-23T07:49:13;24.80;93.10
61386;DHT22;47256;18.904;-99.054;2022-07-23T07:51:41;24.90;93.20
61386;DHT22;47256;18.904;-99.054;2022-07-23T07:54:08;24.80;93.10
61386;DHT22;47256;18.904;-99.054;2022-07-23T07:56:35;24.80;93.10
61386;DHT22;47256;18.904;-99.054;2022-07-23T07:59:03;24.80;93.20
61386;DHT22;47256;18.904;-99.054;2022-07-23T08:01:32;24.80;93.70
61386;DHT22;47256;18.904;-99.054;2022-07-23T08:04:00;24.70;93.90
61386;DHT22;47256;18.904;-99.054;2022-07-23T08:06:28;24.70;93.80
61386;DHT22;47256;18.904;-99.054;2022-07-23T08:08:55;24.70;93.70
61386;DHT22;47256;18.904;-99.054;2022-07-23T08:11:23;24.70;93.70
61386;DHT22;47256;18.904;-99.054;2022-07-23T08:13:51;24.60;93.30
61386;DHT22;47256;18.904;-99.054;2022-07-23T08:16:19;24.60;93.50
61386;DHT22;47256;18.904;-99.054;2022-07-23T08:18:48;24.60;93.80
61386;DHT22;47256;18.904;-99.054;2022-07-23T08:21:16;24.50;94.10
61386;DHT22;47256;18.904;-99.054;2022-07-23T08:23:44;24.50;93.70
61386;DHT22;47256;18.904;-99.054;2022-07-23T08:26:12;24.40;93.80
61386;DHT22;47256;18.904;-99.054;2022-07-23T08:28:41;24.20;94.10
61386;DHT22;47256;18.904;-99.054;2022-07-23T08:31:09;24.20;94.40
61386;DHT22;47256;18.904;-99.054;2022-07-23T08:33:39;24.30;94.70
61386;DHT22;47256;18.904;-99.054;2022-07-23T08:36:16;24.30;94.10
61386;DHT22;47256;18.904;-99.054;2022-07-23T08:38:44;24.40;94.40
61386;DHT22;47256;18.904;-99.054;2022-07-23T08:41:13;24.40;94.00
61386;DHT22;47256;18.904;-99.054;2022-07-23T08:43:42;24.40;93.60
61386;DHT22;47256;18.904;-99.054;2022-07-23T08:46:13;24.30;93.80
61386;DHT22;47256;18.904;-99.054;2022-07-23T08:48:42;24.30;94.00
61386;DHT22;47256;18.904;-99.054;2022-07-23T08:51:10;24.30;94.60
61386;DHT22;47256;18.904;-99.054;2022-07-23T08:53:38;24.30;94.20
61386;DHT22;47256;18.904;-99.054;2022-07-23T08:56:08;24.20;94.30
61386;DHT22;47256;18.904;-99.054;2022-07-23T08:58:37;24.20;94.00
61386;DHT22;47256;18.904;-99.054;2022-07-23T09:01:05;24.20;93.80
61386;DHT22;47256;18.904;-99.054;2022-07-23T09:03:35;24.30;93.30
61386;DHT22;47256;18.904;-99.054;2022-07-23T09:06:05;24.30;93.40
61386;DHT22;47256;18.904;-99.054;2022-07-23T09:08:38;24.20;93.90
61386;DHT22;47256;18.904;-99.054;2022-07-23T09:11:12;24.30;93.80
61386;DHT22;47256;18.904;-99.054;2022-07-23T09:13:50;24.20;93.90
61386;DHT22;47256;18.904;-99.054;2022-07-23T09:16:28;24.20;93.40
61386;DHT22;47256;18.904;-99.054;2022-07-23T09:19:00;24.20;93.80
61386;DHT22;47256;18.904;-99.054;2022-07-23T09:21:36;24.20;93.60
61386;DHT22;47256;18.904;-99.054;2022-07-23T09:24:10;24.20;94.00
61386;DHT22;47256;18.904;-99.054;2022-07-23T09:26:40;24.20;94.30
61386;DHT22;47256;18.904;-99.054;2022-07-23T09:29:18;24.30;94.20
61386;DHT22;47256;18.904;-99.054;2022-07-23T09:31:55;24.30;93.80
61386;DHT22;47256;18.904;-99.054;2022-07-23T09:34:27;23.90;94.30
61386;DHT22;47256;18.904;-99.054;2022-07-23T09:36:58;23.90;94.70
61386;DHT22;47256;18.904;-99.054;2022-07-23T09:39:31;24.00;95.00
61386;DHT22;47256;18.904;-99.054;2022-07-23T09:42:20;24.00;94.90
61386;DHT22;47256;18.904;-99.054;2022-07-23T09:44:52;23.80;95.50
61386;DHT22;47256;18.904;-99.054;2022-07-23T09:47:22;23.80;95.50
61386;DHT22;47256;18.904;-99.054;2022-07-23T09:50:07;23.80;96.10
61386;DHT22;47256;18.904;-99.054;2022-07-23T09:52:45;23.50;96.70
61386;DHT22;47256;18.904;-99.054;2022-07-23T09:55:16;23.60;97.10
61386;DHT22;47256;18.904;-99.054;2022-07-23T09:57:45;23.70;97.20
61386;DHT22;47256;18.904;-99.054;2022-07-23T10:00:24;23.60;97.20
61386;DHT22;47256;18.904;-99.054;2022-07-23T10:02:53;23.50;97.50
61386;DHT22;47256;18.904;-99.054;2022-07-23T10:05:29;23.50;97.50
61386;DHT22;47256;18.904;-99.054;2022-07-23T10:08:34;23.60;96.80
61386;DHT22;47256;18.904;-99.054;2022-07-23T10:11:21;23.70;96.60
61386;DHT22;47256;18.904;-99.054;2022-07-23T10:14:05;23.80;95.90
61386;DHT22;47256;18.904;-99.054;2022-07-23T10:16:46;23.90;95.50
61386;DHT22;47256;18.904;-99.054;2022-07-23T10:19:15;24.00;95.10
61386;DHT22;47256;18.904;-99.054;2022-07-23T10:21:55;24.10;95.10
61386;DHT22;47256;18.904;-99.054;2022-07-23T10:24:52;24.10;94.80
61386;DHT22;47256;18.904;-99.054;2022-07-23T10:27:52;24.10;95.40
61386;DHT22;47256;18.904;-99.054;2022-07-23T10:30:38;24.10;95.60
61386;DHT22;47256;18.904;-99.054;2022-07-23T10:35:58;24.10;95.10
61386;DHT22;47256;18.904;-99.054;2022-07-23T10:38:37;24.10;94.90
61386;DHT22;47256;18.904;-99.054;2022-07-23T10:41:08;24.10;94.90
61386;DHT22;47256;18.904;-99.054;2022-07-23T10:43:36;24.20;95.10
61386;DHT22;47256;18.904;-99.054;2022-07-23T10:46:25;24.10;95.30
61386;DHT22;47256;18.904;-99.054;2022-07-23T10:52:16;24.00;94.70
61386;DHT22;47256;18.904;-99.054;2022-07-23T10:54:56;24.00;95.50
61386;DHT22;47256;18.904;-99.054;2022-07-23T10:57:51;24.00;94.90
61386;DHT22;47256;18.904;-99.054;2022-07-23T11:00:24;24.10;95.20
61386;DHT22;47256;18.904;-99.054;2022-07-23T11:02:55;24.10;95.00
61386;DHT22;47256;18.904;-99.054;2022-07-23T11:05:25;24.10;95.40
61386;DHT22;47256;18.904;-99.054;2022-07-23T11:10:40;24.00;95.70
61386;DHT22;47256;18.904;-99.054;2022-07-23T11:18:52;24.10;95.10
61386;DHT22;47256;18.904;-99.054;2022-07-23T11:24:09;24.00;95.30
61386;DHT22;47256;18.904;-99.054;2022-07-23T11:26:45;24.10;95.30
61386;DHT22;47256;18.904;-99.054;2022-07-23T11:32:01;24.10;95.80
61386;DHT22;47256;18.904;-99.054;2022-07-23T11:34:44;24.10;95.80
61386;DHT22;47256;18.904;-99.054;2022-07-23T11:37:37;24.00;96.40
61386;DHT22;47256;18.904;-99.054;2022-07-23T11:40:09;24.00;96.60
61386;DHT22;47256;18.904;-99.054;2022-07-23T11:43:02;24.00;96.40
61386;DHT22;47256;18.904;-99.054;2022-07-23T11:45:40;24.10;96.60
61386;DHT22;47256;18.904;-99.054;2022-07-23T11:48:14;24.10;96.20
61386;DHT22;47256;18.904;-99.054;2022-07-23T11:50:43;24.10;95.70
61386;DHT22;47256;18.904;-99.054;2022-07-23T11:53:12;24.10;95.80
61386;DHT22;47256;18.904;-99.054;2022-07-23T11:55:41;24.10;95.60
61386;DHT22;47256;18.904;-99.054;2022-07-23T11:58:09;24.10;95.80
61386;DHT22;47256;18.904;-99.054;2022-07-23T12:00:41;24.00;95.70
61386;DHT22;47256;18.904;-99.054;2022-07-23T12:03:09;24.00;95.80
61386;DHT22;47256;18.904;-99.054;2022-07-23T12:05:38;23.90;96.20
61386;DHT22;47256;18.904;-99.054;2022-07-23T12:08:08;23.90;96.60
61386;DHT22;47256;18.904;-99.054;2022-07-23T12:10:41;23.90;96.60
61386;DHT22;47256;18.904;-99.054;2022-07-23T12:13:12;23.90;96.60
61386;DHT22;47256;18.904;-99.054;2022-07-23T12:15:45;23.90;96.60
61386;DHT22;47256;18.904;-99.054;2022-07-23T12:18:16;23.90;96.60
61386;DHT22;47256;18.904;-99.054;2022-07-23T12:20:50;24.00;96.60
61386;DHT22;47256;18.904;-99.054;2022-07-23T12:23:21;24.00;96.70
61386;DHT22;47256;18.904;-99.054;2022-07-23T12:25:51;24.00;97.00
61386;DHT22;47256;18.904;-99.054;2022-07-23T12:28:29;24.00;97.20
61386;DHT22;47256;18.904;-99.054;2022-07-23T12:30:59;24.00;97.60
61386;DHT22;47256;18.904;-99.054;2022-07-23T12:33:40;24.00;97.20
61386;DHT22;47256;18.904;-99.054;2022-07-23T12:36:10;24.00;97.30
61386;DHT22;47256;18.904;-99.054;2022-07-23T12:38:47;24.00;97.00
61386;DHT22;47256;18.904;-99.054;2022-07-23T12:41:16;23.90;96.70
61386;DHT22;47256;18.904;-99.054;2022-07-23T12:43:46;23.90;97.30
61386;DHT22;47256;18.904;-99.054;2022-07-23T12:46:16;23.90;97.40
61386;DHT22;47256;18.904;-99.054;2022-07-23T12:48:55;23.90;97.90
61386;DHT22;47256;18.904;-99.054;2022-07-23T12:51:26;24.00;97.70
61386;DHT22;47256;18.904;-99.054;2022-07-23T12:54:05;24.00;98.00
61386;DHT22;47256;18.904;-99.054;2022-07-23T12:56:39;23.90;97.40
61386;DHT22;47256;18.904;-99.054;2022-07-23T12:59:10;23.80;97.40
61386;DHT22;47256;18.904;-99.054;2022-07-23T13:01:43;23.80;97.50
61386;DHT22;47256;18.904;-99.054;2022-07-23T13:04:19;23.80;97.70
61386;DHT22;47256;18.904;-99.054;2022-07-23T13:06:58;23.90;97.80
61386;DHT22;47256;18.904;-99.054;2022-07-23T13:09:30;23.90;97.80
61386;DHT22;47256;18.904;-99.054;2022-07-23T13:12:01;24.00;98.50
61386;DHT22;47256;18.904;-99.054;2022-07-23T13:14:29;24.00;98.20
61386;DHT22;47256;18.904;-99.054;2022-07-23T13:16:58;24.00;98.10
61386;DHT22;47256;18.904;-99.054;2022-07-23T13:19:26;24.10;97.70
61386;DHT22;47256;18.904;-99.054;2022-07-23T13:21:55;24.10;98.00
61386;DHT22;47256;18.904;-99.054;2022-07-23T13:24:24;24.10;98.30
61386;DHT22;47256;18.904;-99.054;2022-07-23T13:26:53;24.10;97.70
61386;DHT22;47256;18.904;-99.054;2022-07-23T13:29:22;24.10;97.20
61386;DHT22;47256;18.904;-99.054;2022-07-23T13:31:50;24.20;97.50
61386;DHT22;47256;18.904;-99.054;2022-07-23T13:34:19;24.20;98.10
61386;DHT22;47256;18.904;-99.054;2022-07-23T13:36:48;24.20;97.70
61386;DHT22;47256;18.904;-99.054;2022-07-23T13:39:17;24.20;95.60
61386;DHT22;47256;18.904;-99.054;2022-07-23T13:41:45;24.10;96.00
61386;DHT22;47256;18.904;-99.054;2022-07-23T13:44:14;24.20;96.00
61386;DHT22;47256;18.904;-99.054;2022-07-23T13:46:43;24.30;95.10
61386;DHT22;47256;18.904;-99.054;2022-07-23T13:49:11;24.30;95.50
61386;DHT22;47256;18.904;-99.054;2022-07-23T13:51:40;24.40;95.50
61386;DHT22;47256;18.904;-99.054;2022-07-23T13:54:08;24.40;94.50
61386;DHT22;47256;18.904;-99.054;2022-07-23T13:56:37;24.40;94.90
61386;DHT22;47256;18.904;-99.054;2022-07-23T13:59:05;24.40;95.30
61386;DHT22;47256;18.904;-99.054;2022-07-23T14:01:34;24.50;95.30
61386;DHT22;47256;18.904;-99.054;2022-07-23T14:04:03;24.60;95.40
61386;DHT22;47256;18.904;-99.054;2022-07-23T14:06:32;24.60;95.10
61386;DHT22;47256;18.904;-99.054;2022-07-23T14:09:01;24.60;95.10
61386;DHT22;47256;18.904;-99.054;2022-07-23T14:11:29;24.50;94.30
61386;DHT22;47256;18.904;-99.054;2022-07-23T14:13:59;24.50;94.60
61386;DHT22;47256;18.904;-99.054;2022-07-23T14:16:29;24.50;95.10
61386;DHT22;47256;18.904;-99.054;2022-07-23T14:18:57;24.40;95.20
61386;DHT22;47256;18.904;-99.054;2022-07-23T14:21:26;24.40;95.10
61386;DHT22;47256;18.904;-99.054;2022-07-23T14:23:55;24.50;94.40
61386;DHT22;47256;18.904;-99.054;2022-07-23T14:26:23;24.50;94.70
61386;DHT22;47256;18.904;-99.054;2022-07-23T14:28:52;24.60;95.10
61386;DHT22;47256;18.904;-99.054;2022-07-23T14:31:20;24.60;94.50
61386;DHT22;47256;18.904;-99.054;2022-07-23T14:33:49;24.60;94.80
61386;DHT22;47256;18.904;-99.054;2022-07-23T14:36:18;24.70;94.70
61386;DHT22;47256;18.904;-99.054;2022-07-23T14:38:46;24.70;94.80
61386;DHT22;47256;18.904;-99.054;2022-07-23T14:41:15;24.80;94.00
61386;DHT22;47256;18.904;-99.054;2022-07-23T14:43:44;24.80;95.40
61386;DHT22;47256;18.904;-99.054;2022-07-23T14:46:14;24.80;94.50
61386;DHT22;47256;18.904;-99.054;2022-07-23T14:48:43;24.90;94.70
61386;DHT22;47256;18.904;-99.054;2022-07-23T14:51:12;25.00;94.50
61386;DHT22;47256;18.904;-99.054;2022-07-23T14:53:40;25.00;94.50
61386;DHT22;47256;18.904;-99.054;2022-07-23T14:56:09;25.00;94.60
61386;DHT22;47256;18.904;-99.054;2022-07-23T14:58:37;25.10;93.70
61386;DHT22;47256;18.904;-99.054;2022-07-23T15:01:06;25.20;94.50
61386;DHT22;47256;18.904;-99.054;2022-07-23T15:03:35;25.20;93.70
61386;DHT22;47256;18.904;-99.054;2022-07-23T15:06:04;25.30;94.20
61386;DHT22;47256;18.904;-99.054;2022-07-23T15:08:33;25.40;93.40
61386;DHT22;47256;18.904;-99.054;2022-07-23T15:11:02;25.50;93.70
61386;DHT22;47256;18.904;-99.054;2022-07-23T15:13:30;25.50;94.00
61386;DHT22;47256;18.904;-99.054;2022-07-23T15:15:59;25.50;93.80
61386;DHT22;47256;18.904;-99.054;2022-07-23T15:18:28;25.60;94.60
61386;DHT22;47256;18.904;-99.054;2022-07-23T15:20:57;25.60;92.90
61386;DHT22;47256;18.904;-99.054;2022-07-23T15:23:25;25.70;94.30
61386;DHT22;47256;18.904;-99.054;2022-07-23T15:25:57;25.90;94.70
61386;DHT22;47256;18.904;-99.054;2022-07-23T15:28:26;26.00;94.10
61386;DHT22;47256;18.904;-99.054;2022-07-23T15:30:55;26.10;94.30
61386;DHT22;47256;18.904;-99.054;2022-07-23T15:33:24;26.20;94.30
61386;DHT22;47256;18.904;-99.054;2022-07-23T15:35:54;26.30;94.20
61386;DHT22;47256;18.904;-99.054;2022-07-23T15:38:27;26.40;94.00
61386;DHT22;47256;18.904;-99.054;2022-07-23T15:40:56;26.60;94.20